Latest Weather Observations for Kilmore Gap

IDV60801

Issued at 4:02 am EDT Wednesday 19 February 2020 (issued every 10 minutes, with the page automatically refreshed every 10 minutes)

About weather observations | Map of weather stations | Latest weather observations for VIC | Other Formats
Station Details ID: 088162 Name: KILMORE GAP Lat: -37.38 Lon: 144.97 Height: 527.8 m
Data from the previous 72 hours. | See also: Recent months at Kilmore Gap
Date/Time
EDT
Temp
°C
App
Temp
°C
Dew
Point
°C
Rel
Hum
%
Delta-T
°C
Wind Press
QNH
hPa
Press
MSL
hPa
Rain since
9am
mm
Dir  Spd
km/h
Gust
km/h
Spd
kts
Gust
kts
19/04:00am 9.9 3.6 9.8 99 0.1 SW 33 50 18 27 1007.3 1005.3 16.6
19/03:30am 10.4 4.2 10.2 99 0.1 SW 33 52 18 28 1007.4 1005.4 16.6
19/03:24am 10.5 4.6 10.3 99 0.1 SW 32 50 17 27 1007.4 1005.4 16.6
19/03:00am 10.5 4.6 10.5 100 0.0 SW 32 46 17 25 1007.6 1005.6 16.6
19/02:42am 10.7 4.9 10.7 100 0.0 SW 32 41 17 22 1007.8 1005.8 16.6
19/02:30am 10.7 4.9 10.7 100 0.0 SW 32 43 17 23 1007.7 1005.7 16.6
19/02:00am 10.9 4.5 10.7 99 0.1 SW 35 57 19 31 1007.5 1005.5 16.4
19/01:47am 11.0 6.0 10.8 99 0.1 SW 28 46 15 25 1007.5 1005.5 16.0
19/01:46am 11.0 6.3 10.8 99 0.1 SW 26 46 14 25 1007.5 1005.5 16.0
19/01:44am 11.0 6.0 10.8 99 0.1 SW 28 46 15 25 1007.5 1005.5 16.0
19/01:30am 11.3 5.6 11.1 99 0.1 SW 32 44 17 24 1007.5 1005.5 16.0
19/01:00am 11.5 6.6 11.3 99 0.1 SW 28 44 15 24 1007.5 1005.5 16.0
19/12:39am 11.7 5.9 10.9 95 0.4 SW 32 52 17 28 1007.4 1005.4 16.0
19/12:30am 11.8 6.3 10.7 93 0.6 SW 30 46 16 25 1007.4 1005.4 16.0
19/12:00am 11.9 6.8 10.6 92 0.7 SW 28 39 15 21 1007.5 1005.5 16.0
 
Date/Time
EDT
Temp
°C
App
Temp
°C
Dew
Point
°C
Rel
Hum
%
Delta-T
°C
Wind Press
QNH
hPa
Press
MSL
hPa
Rain since
9am
mm
Dir  Spd
km/h
Gust
km/h
Spd
kts
Gust
kts
18/11:30pm 12.2 6.7 10.4 89 1.0 SW 30 50 16 27 1007.5 1005.5 16.0
18/11:24pm 12.2 7.0 10.3 88 1.0 SW 28 50 15 27 1007.4 1005.4 16.0
18/11:07pm 12.3 7.4 10.0 86 1.2 WSW 26 39 14 21 1007.5 1005.5 16.0
18/11:00pm 12.3 7.0 9.9 85 1.3 WSW 28 39 15 21 1007.6 1005.6 16.0
18/10:30pm 12.6 7.3 9.8 83 1.5 WSW 28 46 15 25 1007.4 1005.4 16.0
18/10:21pm 12.7 7.4 9.7 82 1.6 WSW 28 46 15 25 1007.4 1005.4 16.0
18/10:00pm 13.1 8.0 10.5 84 1.4 SW 28 41 15 22 1007.5 1005.5 16.0
18/09:30pm 13.6 7.9 11.3 86 1.3 WSW 32 50 17 27 1007.5 1005.5 16.0
18/09:26pm 13.8 8.9 11.3 85 1.4 SW 28 50 15 27 1007.4 1005.4 16.0
18/09:00pm 14.0 9.9 10.2 78 2.0 WSW 22 32 12 17 1007.2 1005.2 16.0
18/08:41pm 14.2 8.9 10.0 76 2.2 WSW 28 46 15 25 1006.9 1004.9 16.0
18/08:30pm 14.4 10.9 11.0 80 1.9 WSW 20 32 11 17 1006.8 1004.8 16.0
18/08:00pm 14.9 12.0 12.8 87 1.2 SW 20 33 11 18 1006.6 1004.5 15.8
18/07:30pm 15.4 12.2 13.1 86 1.3 SW 22 33 12 18 1006.2 1004.2 15.8
18/07:00pm 16.5 12.6 13.2 81 1.9 SW 26 37 14 20 1005.7 1003.7 15.8
18/06:30pm 17.2 14.2 13.7 80 2.0 WSW 22 35 12 19 1005.1 1003.1 15.8
18/06:00pm 19.3 19.1 15.8 80 2.1 SSW 11 17 6 9 1004.6 1002.5 15.8
18/05:30pm 18.5 18.1 15.2 81 2.0 SSW 11 19 6 10 1004.7 1002.6 15.8
18/05:03pm 18.1 18.0 17.9 99 0.1 SSW 15 22 8 12 1004.8 1002.7 15.8
18/05:00pm 17.7 17.2 17.7 100 0.0 SSW 17 28 9 15 1004.9 1002.8 15.8
18/04:30pm 16.5 16.6 16.5 100 0.0 SSW 11 15 6 8 1005.2 1003.2 15.8
18/04:00pm 15.9 14.1 15.9 100 0.0 SSW 20 30 11 16 1005.3 1003.3 15.8
18/03:41pm 16.9 15.6 16.9 100 0.0 S 19 30 10 16 1005.2 1003.2 15.8
18/03:30pm 17.4 16.2 17.4 100 0.0 S 20 28 11 15 1005.1 1003.1 15.8
18/03:00pm 15.9 13.7 15.9 100 0.0 SSE 22 30 12 16 1005.1 1003.1 15.8
18/02:30pm 16.1 14.0 16.1 100 0.0 SW 22 33 12 18 1005.7 1003.7 15.8
18/02:10pm 16.3 13.9 16.3 100 0.0 SW 24 43 13 23 1005.5 1003.5 12.4
18/02:00pm 16.3 15.2 16.3 100 0.0 WSW 17 28 9 15 1005.9 1003.9 8.0
18/01:30pm 16.5 15.5 16.5 100 0.0 SSW 17 28 9 15 1005.9 1003.9 3.2
18/01:00pm 17.4 15.4 17.4 100 0.0 S 24 30 13 16 1005.9 1003.9 0.8
18/12:30pm 17.3 17.0 17.3 100 0.0 S 15 20 8 11 1006.9 1004.9 0.8
18/12:00pm 17.4 16.7 17.4 100 0.0 SSW 17 26 9 14 1007.3 1005.3 0.6
18/11:53am 17.4 16.6 17.2 99 0.1 SW 17 26 9 14 1007.7 1005.7 0.6
18/11:42am 18.8 18.9 18.3 97 0.3 SSW 15 22 8 12 1007.0 1005.0 0.6
18/11:30am 19.8 20.1 16.1 79 2.3 W 9 24 5 13 1007.5 1005.5 0.2
18/11:00am 21.9 21.3 15.7 68 3.8 N 13 17 7 9 1007.3 1005.3 0.2
18/10:30am 21.4 20.5 15.9 71 3.4 NNW 15 19 8 10 1007.6 1005.6 0.2
18/10:00am 20.2 18.7 16.2 78 2.5 NNW 19 26 10 14 1007.4 1005.4 0.2
18/09:30am 20.1 18.4 16.3 79 2.3 N 20 24 11 13 1007.2 1005.2 0.0
18/09:00am 19.0 17.2 15.5 80 2.1 NNE 19 26 10 14 1007.2 1005.2 0.0
18/08:30am 19.6 17.4 15.0 75 2.8 N 20 28 11 15 1007.3 1005.3 0.0
18/08:00am 19.1 16.8 14.6 75 2.7 NNE 20 24 11 13 1006.6 1004.5 0.0
18/07:30am 18.0 16.1 14.3 79 2.2 NE 17 19 9 10 1007.0 1005.0 0.0
18/07:00am 17.3 16.9 14.0 81 1.9 ENE 9 11 5 6 1007.7 1005.7 0.0
18/06:30am 19.7 18.9 13.9 69 3.4 E 11 15 6 8 1007.7 1005.7 0.0
18/06:00am 17.4 16.4 14.5 83 1.7 WNW 13 20 7 11 1008.0 1006.0 0.0
18/05:30am 19.5 17.5 13.9 70 3.3 NE 17 20 9 11 1006.9 1004.9 0.0
18/05:00am 18.3 16.9 14.4 78 2.3 NNE 15 19 8 10 1007.2 1005.2 0.0
18/04:30am 18.1 17.1 15.7 86 1.4 ENE 15 17 8 9 1007.4 1005.4 0.0
18/04:00am 17.5 17.1 15.1 86 1.4 SE 11 19 6 10 1007.8 1005.8 0.0
18/03:30am 16.5 15.6 15.9 96 0.4 SW 15 17 8 9 1009.2 1007.2 0.0
18/03:00am 16.9 16.4 15.8 93 0.7 S 13 17 7 9 1009.1 1007.1 0.0
18/02:30am 16.9 17.1 16.7 99 0.1 SSW 11 17 6 9 1009.6 1007.6 0.0
18/02:00am 16.2 14.6 16.0 99 0.1 SW 19 22 10 12 1010.3 1008.4 0.0
18/01:30am 16.4 15.7 16.4 100 0.0 SW 15 20 8 11 1010.5 1008.5 0.0
18/01:00am 16.1 16.0 15.9 99 0.1 SW 11 15 6 8 1010.7 1008.7 0.0
18/12:30am 16.7 16.8 16.5 99 0.1 SSW 11 15 6 8 1010.6 1008.6 0.0
18/12:00am 16.8 16.4 16.3 97 0.3 SSW 13 15 7 8 1010.7 1008.7 0.0
 
Date/Time
EDT
Temp
°C
App
Temp
°C
Dew
Point
°C
Rel
Hum
%
Delta-T
°C
Wind Press
QNH
hPa
Press
MSL
hPa
Rain since
9am
mm
Dir  Spd
km/h
Gust
km/h
Spd
kts
Gust
kts
17/11:30pm 16.7 15.4 15.9 95 0.5 SW 17 20 9 11 1011.0 1009.0 0.0
17/11:00pm 17.5 17.2 16.4 93 0.7 SSW 13 19 7 10 1011.3 1009.3 0.0
17/10:30pm 18.0 16.8 16.2 89 1.1 SSW 17 20 9 11 1011.5 1009.5 0.0
17/10:00pm 18.4 17.6 16.2 87 1.3 SSW 15 20 8 11 1011.4 1009.4 0.0
17/09:30pm 18.9 18.2 16.3 85 1.6 S 15 20 8 11 1011.2 1009.2 0.0
17/09:00pm 19.5 18.7 16.2 81 2.0 SSW 15 20 8 11 1011.2 1009.2 0.0
17/08:30pm 20.3 19.0 15.7 75 2.8 SSW 17 20 9 11 1011.2 1009.2 0.0
17/08:00pm 21.1 19.7 15.6 71 3.4 SSW 17 24 9 13 1011.2 1009.2 0.0
17/07:30pm 22.3 20.1 15.9 67 3.9 S 22 32 12 17 1010.9 1008.9 0.0
17/07:00pm 23.3 21.5 16.1 64 4.5 S 20 30 11 16 1010.8 1008.8 0.0
17/06:30pm 24.1 22.3 16.1 61 5.0 S 20 32 11 17 1010.6 1008.6 0.0
17/06:00pm 24.6 22.3 15.8 58 5.5 S 22 35 12 19 1010.7 1008.7 0.0
17/05:30pm 25.6 23.4 15.9 55 6.0 S 22 33 12 18 1010.8 1008.8 0.0
17/05:00pm 25.6 23.1 16.2 56 5.9 S 24 32 13 17 1010.8 1008.8 0.0
17/04:30pm 26.3 24.8 16.8 56 6.0 S 20 32 11 17 1010.9 1008.9 0.0
17/04:00pm 26.4 24.5 15.8 52 6.6 S 20 32 11 17 1011.1 1009.1 0.0
17/03:30pm 26.4 24.9 16.3 53 6.4 SSE 19 24 10 13 1011.3 1009.3 0.0
17/03:00pm 26.8 26.4 16.1 52 6.7 S 13 22 7 12 1011.5 1009.5 0.0
17/02:30pm 26.7 24.0 10.4 36 9.3 N 15 26 8 14 1011.7 1009.8 0.0
17/02:00pm 26.5 26.2 14.3 47 7.4 N 9 15 5 8 1012.0 1010.1 0.0
17/01:30pm 25.7 26.9 16.8 58 5.6 NW 6 13 3 7 1012.3 1010.4 0.0
17/01:00pm 25.3 25.3 15.3 54 6.2 NNW 9 15 5 8 1012.8 1010.8 0.0
17/12:30pm 24.7 25.5 15.9 58 5.5 NNW 6 13 3 7 1013.1 1011.1 0.0
17/12:00pm 23.9 23.9 17.2 66 4.2 NNE 13 20 7 11 1013.2 1011.2 0.0
17/11:30am 23.2 22.3 15.8 63 4.6 N 15 20 8 11 1013.4 1011.5 0.0
17/11:00am 22.5 21.1 16.5 69 3.7 N 19 26 10 14 1013.6 1011.7 0.0
17/10:30am 20.0 20.8 16.4 80 2.2 E 7 11 4 6 1013.8 1011.9 0.0
17/10:00am 18.9 21.0 18.9 100 0.0 ENE 6 7 3 4 1013.9 1012.0 0.0
17/09:30am 16.6 17.7 16.6 100 0.0 ESE 6 7 3 4 1013.9 1012.0 0.0
17/09:00am 16.0 17.6 16.0 100 0.0 N 2 6 1 3 1013.9 1012.0 0.2
17/08:52am 15.6 16.7 15.6 100 0.0 NNE 4 7 2 4 1013.9 1012.0 0.2
17/08:30am 14.0 14.5 14.0 100 0.0 ESE 4 7 2 4 1013.7 1011.8 0.2
17/08:27am 14.2 15.2 14.2 100 0.0 NE 2 6 1 3 1013.7 1011.8 0.2
17/08:26am 14.1 15.0 14.1 100 0.0 NNE 2 6 1 3 1013.7 1011.8 0.2
17/08:08am 13.6 13.6 13.6 100 0.0 ESE 6 9 3 5 1013.6 1011.7 0.2
17/08:00am 13.6 13.6 13.6 100 0.0 SE 6 9 3 5 1013.6 1011.7 0.2
17/07:30am 13.1 12.7 13.1 100 0.0 SE 7 9 4 5 1013.4 1011.5 0.2
17/07:00am 12.7 12.2 12.7 100 0.0 S 7 9 4 5 1013.2 1011.2 0.2
17/06:55am 12.7 11.8 12.7 100 0.0 S 9 11 5 6 1013.1 1011.1 0.2
17/06:30am 12.6 11.3 12.6 100 0.0 SSW 11 13 6 7 1013.0 1011.0 0.2
17/06:16am 12.5 11.6 12.5 100 0.0 SSW 9 11 5 6 1013.1 1011.1 0.2
17/06:00am 12.6 11.3 12.6 100 0.0 S 11 13 6 7 1013.1 1011.1 0.2
17/05:59am 12.6 11.3 12.6 100 0.0 S 11 13 6 7 1013.1 1011.1 0.2
17/05:49am 12.6 11.7 12.6 100 0.0 SSW 9 13 5 7 1013.0 1011.0 0.2
17/05:30am 12.4 11.1 12.4 100 0.0 SSW 11 13 6 7 1013.1 1011.1 0.2
17/05:00am 12.4 12.0 12.4 100 0.0 S 6 9 3 5 1013.0 1011.0 0.2
17/04:30am 12.4 10.7 12.4 100 0.0 SSW 13 17 7 9 1013.0 1011.0 0.0
17/04:00am 12.5 10.4 12.5 100 0.0 SW 15 17 8 9 1012.7 1010.7 0.0
17/03:30am 12.5 10.1 12.5 100 0.0 SW 17 20 9 11 1012.8 1010.8 0.0
17/03:00am 12.6 10.2 12.6 100 0.0 SW 17 20 9 11 1012.9 1010.9 0.0
17/02:30am 12.6 10.2 12.6 100 0.0 SW 17 22 9 12 1013.2 1011.2 0.0
17/02:00am 12.6 10.2 12.6 100 0.0 SW 17 22 9 12 1013.4 1011.5 0.0
17/01:30am 12.7 9.9 12.7 100 0.0 SSW 19 28 10 15 1013.6 1011.7 0.0
17/01:00am 12.8 9.5 12.8 100 0.0 SSW 22 32 12 17 1013.6 1011.7 0.0
17/12:30am 13.0 9.8 13.0 100 0.0 SSW 22 30 12 16 1013.6 1011.7 0.0
17/12:01am 13.2 9.6 13.2 100 0.0 SW 24 32 13 17 1013.8 1011.9 0.0
17/12:00am 13.2 9.6 13.2 100 0.0 SW 24 32 13 17 1013.8 1011.9 0.0
 
Date/Time
EDT
Temp
°C
App
Temp
°C
Dew
Point
°C
Rel
Hum
%
Delta-T
°C
Wind Press
QNH
hPa
Press
MSL
hPa
Rain since
9am
mm
Dir  Spd
km/h
Gust
km/h
Spd
kts
Gust
kts
16/11:59pm 13.2 9.6 13.2 100 0.0 SW 24 32 13 17 1013.8 1011.9 0.0
16/11:30pm 13.6 10.6 13.6 100 0.0 SW 22 28 12 15 1013.9 1012.0 0.0
16/11:00pm 14.1 11.2 13.9 99 0.1 SW 22 28 12 15 1013.9 1012.0 0.0
16/10:30pm 14.7 11.5 14.2 97 0.3 SW 24 30 13 16 1014.0 1012.1 0.0
16/10:00pm 15.6 12.4 14.3 92 0.8 SW 24 32 13 17 1013.9 1012.0 0.0
16/09:30pm 16.6 14.2 14.4 87 1.3 SW 20 28 11 15 1013.7 1011.8 0.0
16/09:00pm 17.6 16.0 14.9 84 1.6 SSW 17 26 9 14 1013.7 1011.8 0.0
16/08:30pm 18.5 17.0 15.2 81 2.0 S 17 24 9 13 1013.4 1011.5 0.0
16/08:00pm 19.4 17.5 15.1 76 2.6 SSW 19 28 10 15 1013.3 1011.3 0.0
16/07:30pm 20.5 18.7 15.5 73 3.0 SSW 19 32 10 17 1013.1 1011.1 0.0
16/07:00pm 21.3 19.4 15.8 71 3.4 SSW 20 30 11 16 1013.0 1011.0 0.0
16/06:30pm 22.3 20.7 16.1 68 3.8 SSW 19 30 10 16 1013.0 1011.0 0.0
16/06:00pm 22.6 21.0 16.6 69 3.7 SSW 20 32 11 17 1013.1 1011.1 0.0
16/05:30pm 22.6 20.8 15.9 66 4.1 SSW 20 33 11 18 1013.3 1011.3 0.0
16/05:00pm 23.1 21.6 16.4 66 4.2 SSW 19 26 10 14 1013.3 1011.3 0.0
16/04:30pm 23.3 21.8 16.8 67 4.1 SSW 20 33 11 18 1013.3 1011.3 0.0
16/04:00pm 22.7 21.2 16.7 69 3.7 S 20 35 11 19 1013.5 1011.6 0.0
16/03:30pm 22.0 20.5 16.7 72 3.3 S 20 32 11 17 1013.8 1011.9 0.0
16/03:00pm 22.1 20.3 17.0 73 3.2 S 22 32 12 17 1013.9 1012.0 0.0
16/02:30pm 21.4 22.0 21.4 100 0.0 S 20 32 11 17 1014.1 1012.2 0.0
16/02:09pm 20.3 20.0 20.3 100 0.0 S 22 32 12 17 1014.2 1012.3 0.0
16/02:00pm 20.2 19.8 20.2 100 0.0 S 22 33 12 18 1014.3 1012.4 0.0
16/01:39pm 19.7 18.7 19.7 100 0.0 S 24 33 13 18 1014.6 1012.6 0.0
16/01:38pm 20.1 19.3 20.1 100 0.0 S 24 33 13 18 1014.5 1012.5 0.0
16/01:30pm 18.9 18.3 18.9 100 0.0 S 20 30 11 16 1014.6 1012.6 0.0
16/01:00pm 16.8 14.9 16.8 100 0.0 S 22 28 12 15 1014.8 1012.8 0.0
16/12:30pm 15.7 13.8 15.7 100 0.0 S 20 28 11 15 1015.0 1013.0 0.0
16/12:00pm 15.6 13.6 15.6 100 0.0 S 20 28 11 15 1015.2 1013.3 0.0
16/11:30am 15.5 13.5 15.5 100 0.0 S 20 26 11 14 1015.4 1013.5 0.0
16/11:16am 15.6 13.6 15.6 100 0.0 S 20 26 11 14 1015.4 1013.5 0.0
16/11:00am 15.1 13.0 15.1 100 0.0 S 20 24 11 13 1015.4 1013.5 0.0
16/10:30am 15.0 13.0 15.0 100 0.0 S 19 24 10 13 1015.2 1013.3 0.0
16/10:00am 14.6 12.3 14.6 100 0.0 S 20 24 11 13 1015.2 1013.3 0.0
16/09:30am 14.5 13.1 14.5 100 0.0 SSW 15 19 8 10 1015.1 1013.2 0.0
16/09:05am 14.3 12.8 14.3 100 0.0 SSW 15 20 8 11 1014.9 1012.9 0.0
16/09:00am 14.2 12.7 14.2 100 0.0 S 15 20 8 11 1014.9 1012.9 4.0
16/08:30am 14.3 12.8 14.3 100 0.0 S 15 22 8 12 1014.6 1012.6 4.0
16/08:00am 14.2 12.3 14.2 100 0.0 SSW 17 22 9 12 1014.1 1012.2 4.0
16/07:30am 14.0 12.4 14.0 100 0.0 S 15 22 8 12 1013.7 1011.8 4.0
16/07:00am 13.6 11.5 13.6 100 0.0 SSW 17 22 9 12 1013.4 1011.5 4.0
16/06:30am 13.4 10.9 13.4 100 0.0 SW 19 24 10 13 1013.3 1011.3 3.8
16/06:00am 13.6 11.5 13.6 100 0.0 SSW 17 24 9 13 1013.0 1011.0 3.8
16/05:30am 13.3 10.5 13.3 100 0.0 SSW 20 28 11 15 1013.0 1011.0 3.8
16/05:00am 13.4 11.2 13.4 100 0.0 SSW 17 24 9 13 1013.0 1011.0 3.6
16/04:30am 13.5 11.0 13.5 100 0.0 SSW 19 30 10 16 1012.9 1010.9 3.4

Other formats

Comma delimited format used in spreadsheet applications
http://www.bom.gov.au/fwo/IDV60801/IDV60801.94860.axf

JavaScript Object Notation format (JSON) in row-major order
http://www.bom.gov.au/fwo/IDV60801/IDV60801.94860.json

Data quality

Most of these data are generated automatically and are frequently updated. Quality checks on data are not normally performed. It is possible for incorrect values to appear. Refer to information at About Latest Weather Observations and please check the disclaimer before using these data.